Weather observations for the past three days for
Kill Devil Hills, First Flight Airport
Metric (Imperial)
Date Time (edt) Wind (kph) Vis. (km) Weather Sky Cond. Temperature (ºC) Relative Humidity Wind Chill (°C) Heat Index (°C) Pressure Precipitation (cm)
Air Dwpt 6 hour altimeter (cm) sea level (mb) 1 hr 3 hr 6 hr
Max. Min.
04 23:35 S 9 16.09 Fair CLR 17.3 12.3 73% 76.25 0.0
04 23:15 SW 9 16.09 Fair CLR 17.5 12.4 72% 76.25 0.0
04 22:55 SW 13 16.09 Fair CLR 17.5 12.3 72% 76.25 0.0
04 22:35 S 13 16.09 Fair CLR 17.5 12.3 72% 76.25 0.0
04 22:15 SW 13 16.09 Fair CLR 17.7 12.1 70% 76.25 0.0
04 21:55 S 15 G 30 16.09 Fair CLR 17.8 11.4 66% 76.23 0.0
04 21:35 SW 15 16.09 Fair CLR 18 11.1 64% 76.23 0.0
04 21:15 S 13 16.09 Fair CLR 18 11.1 64% 76.23 0.0
04 20:55 S 13 16.09 Fair CLR 18.1 11.1 64% 76.17 0.0
04 20:35 S 11 16.09 Fair CLR 18.3 10.9 62% 76.17 0.0
04 20:15 S 13 16.09 Fair CLR 18.5 10.6 60% 76.15 0.0
04 19:55 S 13 G 28 16.09 Fair CLR 18.7 10.3 29.6 -7 58% 76.15 0.0
04 19:35 S 13 G 31 16.09 Fair CLR 19 10.2 57% 76.15 0.0
04 19:15 S 9 G 31 16.09 Fair CLR 19.3 10.1 55% 76.12 0.0
04 18:55 S 15 G 28 16.09 Fair CLR 19.4 10.2 55% 76.12 0.0
04 18:35 S 15 G 31 16.09 Fair CLR 19.6 10 54% 76.12 0.0
04 18:15 S 15 G 26 16.09 Fair CLR 19.9 9.7 52% 76.12 0.0
04 17:55 S 11 G 33 16.09 Fair CLR 20.1 10.3 53% 76.12 0.0
04 17:35 S 15 16.09 Fair CLR 20.2 11.2 56% 76.15 0.0
04 17:15 S 17 G 31 16.09 Fair CLR 20.4 11.7 58% 76.15 0.0
04 16:55 S 17 G 30 16.09 Fair CLR 20.5 11.6 57% 76.15 0.0
04 16:35 S 19 G 30 16.09 Fair CLR 20.7 11.7 56% 76.15 0.0
04 16:10 S 20 G 35 16.09 Fair CLR 20.6 11.3 55% 76.15 0.0
04 15:55 S 20 G 33 16.09 Fair CLR 20.9 11.6 55% 76.17 0.0
04 15:35 S 17 G 33 16.09 Fair CLR 20.7 11.8 57% 76.17 0.0
04 15:15 S 19 G 37 16.09 Fair CLR 20.8 11.7 56% 76.17 0.0
04 14:55 S 19 G 35 16.09 Fair CLR 21 11.7 55% 76.2 0.0
04 14:15 S 20 G 28 16.09 Fair CLR 21.5 11.3 52% 76.2 0.0
04 13:55 S 15 16.09 Fair CLR 21.4 11.5 29.6 -7 53% 76.23 0.0
04 13:35 S 9 16.09 Fair CLR 21.3 11.6 54% 76.25 0.0
04 13:15 S 17 G 26 16.09 Fair CLR 21.3 11.2 53% 76.28 0.0
04 12:55 S 13 16.09 Fair CLR 21.4 10.3 49% 76.28 0.0
04 12:35 S 7 16.09 Fair CLR 21.5 8.8 44% 76.28 0.0
04 12:15 SW 13 16.09 Fair CLR 21.2 9 46% 76.3 0.0
04 11:55 SW 7 16.09 Fair CLR 21 9 46% 76.3 0.0
04 11:35 S 11 16.09 Fair CLR 20.5 9.6 50% 76.3 0.0
04 11:15 SW 15 16.09 Fair CLR 20 9.6 51% 76.33 0.0
04 10:55 SW 15 16.09 Fair CLR 19.4 9.3 52% 76.33 0.0
04 10:35 W 19 16.09 Fair CLR 19 9.7 55% 76.33 0.0
04 10:15 SW 15 16.09 Fair CLR 18.5 10 58% 76.33 0.0
04 09:55 SW 15 16.09 Fair CLR 18.1 10.1 60% 76.33 0.0
04 09:35 SW 15 16.09 Fair CLR 17.3 10.1 63% 76.35 0.0
04 09:15 SW 11 16.09 Fair CLR 16.6 10.3 67% 76.35 0.0
04 08:50 SW 9 16.09 Fair CLR 15.6 10.2 70% 76.38 0.0
04 08:35 SW 9 16.09 Fair CLR 15.3 9.9 70% 76.38 0.0
04 07:55 SW 9 16.09 Fair CLR 14.1 10 29.6 -7 77% 76.38 0.0
04 07:35 SW 7 16.09 Fair CLR 13.4 10 80% 76.4 0.0
04 07:15 SW 7 16.09 Fair CLR 13 9.9 82% 76.38 0.0
04 06:55 SW 7 16.09 Fair CLR 12.8 9.7 82% 76.38 0.0
04 06:35 SW 7 16.09 Fair CLR 12.5 9.6 83% 76.38 0.0
04 06:15 S 6 16.09 Partly Cloudy SCT120 12.2 9.4 83% 76.38 0.0
04 05:55 Calm 16.09 Fair CLR 12.2 9.5 84% 76.38 0.0
04 05:35 Calm 16.09 Fair CLR 12.1 9.6 85% 76.38 0.0
04 05:15 Calm 16.09 Fair CLR 12.1 9.7 85% 76.38 0.0
04 04:55 S 6 16.09 Fair CLR 12.4 9.9 85% 76.38 0.0
04 04:35 S 6 16.09 Fair CLR 12.4 10.1 86% 76.38 0.0
04 04:15 S 6 16.09 Fair CLR 12.2 10 87% 76.38 0.0
04 03:55 S 6 16.09 Fair CLR 12.2 9.6 84% 76.38 0.0
04 03:35 S 6 16.09 Fair CLR 12.3 9 80% 76.4 0.0
04 03:15 S 6 16.09 Fair CLR 12.1 8.9 81% 76.38 0.0
04 02:55 S 6 16.09 Fair CLR 11.9 9.1 83% 76.38 0.0
04 02:35 S 6 16.09 Fair CLR 11.7 9.4 86% 76.38 0.0
04 02:15 S 6 16.09 Fair CLR 11.3 9.1 86% 76.38 0.0
04 01:55 SE 6 16.09 Fair CLR 11.1 8.5 29.6 -7 84% 76.4 0.0
04 01:35 S 6 16.09 Fair CLR 10.7 7.7 82% 76.4 0.0
04 01:15 SE 7 16.09 Fair CLR 10.2 6.9 80% 76.4 0.0
04 00:55 Calm 16.09 Fair CLR 9.8 6.5 80% 76.4 0.0
04 00:35 SE 6 16.09 Fair CLR 9.9 6.3 79% 76.4 0.0
04 00:15 SE 7 16.09 Fair CLR 10 6.1 77% 9 76.4 0.0
03 23:55 SE 7 16.09 Fair CLR 10.1 6 76% 76.43 0.0
03 23:35 SE 9 16.09 Fair CLR 10 5.8 75% 9 76.43 0.0
03 23:15 SE 7 16.09 Fair CLR 10 5.4 73% 9 76.43 0.0
03 22:55 SE 7 16.09 Fair CLR 10 5.2 72% 9 76.43 0.0
03 22:35 SE 7 16.09 Fair CLR 10 5 71% 9 76.43 0.0
03 22:15 SE 7 16.09 Fair CLR 10.3 4.7 69% 76.43 0.0
03 21:55 SE 7 16.09 Fair CLR 10.6 4.2 65% 76.4 0.0
03 21:35 SE 13 16.09 Fair CLR 10.8 4 63% 76.4 0.0
03 21:15 SE 11 16.09 Fair CLR 10.8 3.9 63% 76.35 0.0
03 20:55 SE 11 16.09 Fair CLR 10.8 4 63% 76.35 0.0
03 20:35 SE 9 16.09 Fair CLR 10.8 3.9 63% 76.33 0.0
03 20:15 SE 11 16.09 Fair CLR 11 3.9 62% 76.3 0.0
03 19:55 SE 11 16.09 Fair CLR 11.2 3.7 29.6 -7 60% 76.3 0.0
03 19:35 SE 15 16.09 Fair CLR 11.7 3.9 59% 76.3 0.0
03 19:15 SE 13 16.09 Fair CLR 12.1 3.7 57% 76.28 0.0
03 18:55 SE 13 16.09 Fair CLR 12.4 3.5 55% 76.28 0.0
03 18:35 E 9 16.09 Fair CLR 12.7 3.4 53% 76.25 0.0
03 18:15 E 7 16.09 Fair CLR 13 3.6 53% 76.25 0.0
03 17:55 NE 7 16.09 Fair CLR 13.1 3.3 52% 76.25 0.0
03 17:35 E 9 16.09 Fair CLR 13.2 3.2 51% 76.25 0.0
03 17:15 E 11 16.09 Fair CLR 13.7 3.6 51% 76.23 0.0
03 16:55 E 15 16.09 Fair CLR 13.9 3.6 50% 76.23 0.0
03 16:35 E 7 16.09 Fair CLR 13.8 3.7 51% 76.23 0.0
03 16:15 NE 9 16.09 Fair CLR 14.3 4 50% 76.23 0.0
03 15:55 W 7 16.09 Fair CLR 14.7 3.9 49% 76.25 0.0
03 15:35 Calm 16.09 Fair CLR 15.6 2.5 42% 76.28 0.0
03 15:15 NW 11 16.09 Fair CLR 15.4 2.1 41% 76.28 0.0
03 14:55 W 15 16.09 Fair CLR 15.4 1.7 40% 76.3 0.0
03 14:35 W 9 16.09 Fair CLR 15.4 1.4 39% 76.3 0.0
03 14:15 W 15 16.09 Fair CLR 15.2 1.6 40% 76.3 0.0
03 13:55 W 11 16.09 Fair CLR 15 1.4 29.6 -7 40% 76.3 0.0
03 13:35 NW 17 G 30 16.09 Fair CLR 15 1.1 39% 76.3 0.0
03 13:15 W 20 G 30 16.09 Fair CLR 14.9 1.1 39% 76.3 0.0
03 12:55 W 15 G 28 16.09 Fair CLR 14.6 1 40% 76.3 0.0
03 12:35 W 19 G 31 16.09 Fair CLR 14.4 1.4 42% 76.33 0.0
03 12:15 NW 19 G 28 16.09 Partly Cloudy SCT055 14.5 1.5 42% 76.33 0.0
03 11:55 NW 15 16.09 Partly Cloudy SCT055 14.4 1.4 42% 76.33 0.0
03 11:35 NW 15 16.09 Partly Cloudy SCT060 14.2 1.8 43% 76.33 0.0
03 11:15 NW 9 16.09 Partly Cloudy SCT060 13.8 1.8 44% 76.33 0.0
03 10:55 NW 13 16.09 Partly Cloudy SCT070 13.6 1.6 44% 76.3 0.0
03 10:35 NW 11 16.09 Partly Cloudy SCT070 13.4 1.4 44% 76.3 0.0
03 10:15 NW 15 G 26 16.09 Partly Cloudy SCT070 13 1.1 45% 76.3 0.0
03 09:55 NW 19 G 26 16.09 Partly Cloudy SCT060 12.7 1 45% 76.3 0.0
03 09:35 NW 15 G 26 16.09 Mostly Cloudy SCT060 BKN075 13.2 2.7 49% 76.28 0.0
03 09:15 NW 11 G 26 16.09 Partly Cloudy SCT038 SCT065 SCT075 13.1 4.1 55% 76.28 0.0
03 08:55 NW 15 G 28 16.09 Fair CLR 12.8 4 55% 76.25 0.0
03 08:35 NW 13 16.09 Partly Cloudy SCT060 12.6 4.2 57% 76.23 0.0
03 08:15 N 7 G 26 16.09 Fair CLR 12.6 4.4 58% 76.2 0.0
03 07:55 N 15 16.09 Fair CLR 12.1 4.9 29.6 -7 62% 76.17 0.0
03 07:35 N 11 16.09 Fair CLR 11.4 6.2 71% 76.17 0.0
03 07:15 N 7 16.09 Fair CLR 11 5.9 71% 76.15 0.0
03 06:35 NW 9 16.09 Partly Cloudy SCT085 11 5.5 69% 76.1 0.0
03 06:15 NW 9 16.09 Overcast OVC085 10.8 5.3 69% 76.07 0.0
03 05:55 NW 7 16.09 Mostly Cloudy BKN085 10.7 5.1 69% 76.05 0.0
03 05:35 NW 9 16.09 Fair CLR 10.9 4.9 67% 76.02 0.0
03 05:15 NW 11 16.09 Fair CLR 11.1 4.9 66% 76 0.0
03 04:55 NW 11 16.09 Fair CLR 11.1 4.8 65% 76 0.0
03 04:35 NW 9 16.09 Fair CLR 11.3 5.2 66% 75.97 0.0
03 04:15 NW 11 16.09 Fair CLR 11.3 5.4 67% 75.97 0.0
03 03:55 NW 7 16.09 Fair CLR 11.4 5.3 66% 75.97 0.0
03 03:35 NW 13 16.09 Fair CLR 11.5 5.4 66% 75.95 0.0
03 03:15 NW 9 16.09 Fair CLR 11.5 5.5 67% 75.92 0.0
03 02:55 NW 9 16.09 Fair CLR 11.5 6.3 71% 75.9 0.0
03 02:35 NW 9 16.09 Fair CLR 11.7 6.5 71% 75.87 0.0
03 02:15 NW 11 16.09 Partly Cloudy SCT110 11.9 6.6 70% 75.84 0.0
03 01:55 NW 9 16.09 Partly Cloudy SCT120 12 6.8 29.6 -7 71% 75.84 0.0
03 01:35 NW 9 16.09 Mostly Cloudy SCT090 BKN110 12.1 7.2 72% 75.84 0.0
03 01:15 NW 6 16.09 Overcast BKN090 OVC110 12.2 6.2 67% 75.87 0.0
03 00:55 NW 7 16.09 Overcast BKN080 OVC110 12.3 5.3 63% 75.87 0.0
03 00:35 NW 9 16.09 Overcast BKN080 OVC100 12.4 5.6 63% 75.9 0.0
03 00:15 N 9 16.09 Overcast SCT070 OVC100 12.3 6.1 66% 75.87 0.0
02 23:55 N 9 16.09 Overcast SCT070 OVC100 12.3 5.2 62% 75.87 0.0
02 23:35 N 11 16.09 Overcast OVC090 12.1 5.1 63% 75.84 0.0
02 23:15 N 9 16.09 Overcast OVC090 12.1 5.8 66% 75.87 0.0
02 22:55 N 11 16.09 Overcast OVC090 12.3 6 66% 75.87 0.0
02 22:35 N 11 16.09 Overcast OVC090 12.2 6.9 70% 75.87 0.0
02 22:15 N 9 16.09 Overcast OVC090 12.1 7.5 74% 75.87 0.0
02 21:55 N 11 16.09 Overcast OVC090 12 7.7 75% 75.87 0.0
02 21:35 N 13 16.09 Overcast SCT026 BKN090 OVC110 11.8 8.2 79% 75.87 0.0
02 21:15 N 9 16.09 Overcast OVC100 11.6 8.6 82% 75.84 0.0
02 20:55 N 6 16.09 Overcast SCT070 OVC090 11.5 8.5 82% 75.84 0.0
02 20:35 N 11 16.09 Overcast SCT070 OVC090 11.4 8.4 82% 75.82 0.0
02 20:15 N 7 16.09 Overcast SCT060 SCT070 OVC080 11.4 8.3 81% 75.82 0.0
02 19:55 N 9 16.09 Overcast SCT060 OVC080 11.3 8.1 29.6 -7 81% 75.79 0.0 0.1
02 19:35 N 9 16.09 Overcast SCT050 SCT060 OVC080 11.1 7.9 81% 75.77 0.0
02 19:15 N 11 16.09 Overcast BKN050 OVC080 11 7.7 80% 75.74 0.0
02 18:55 N 13 16.09 Overcast SCT024 BKN050 OVC080 10.8 7.6 81% 75.77 0.0 0.03
02 18:35 N 13 G 26 16.09 Overcast BKN024 BKN045 OVC049 10.8 8.5 86% 75.77 0.0 0.03
02 18:15 N 11 16.09 Overcast SCT017 BKN024 OVC060 10.8 8.7 87% 75.77 0.0 0.03
02 17:55 N 13 16.09 Overcast SCT017 BKN024 OVC070 10.6 8.8 89% 75.77 0.0 0.03
02 17:35 N 11 16.09 Overcast SCT017 OVC070 10.5 8.4 87% 75.79 0.0 0.03
02 17:15 N 15 16.09 Overcast OVC070 10.5 8.5 88% 75.74 0.0 0.03
02 16:55 N 13 16.09 Overcast OVC070 10.7 8.3 85% 75.77 0.0 0.03 0.05
02 16:35 N 15 16.09 Overcast OVC070 10.6 7.9 84% 75.77 0.0 0.03
02 16:15 N 17 G 30 16.09 Overcast OVC070 10.6 8.1 85% 75.74 0.0 0.03
02 15:55 N 11 G 26 16.09 Overcast OVC070 11 8.1 82% 75.77 0.0
02 15:35 N 13 G 30 16.09 Overcast OVC070 11.3 8.7 84% 75.79 0.0
02 15:15 N 17 16.09 Overcast OVC070 11.5 9.2 86% 75.82 0.0
02 14:55 N 13 G 31 16.09 Overcast SCT013 SCT022 OVC070 11.6 9.5 87% 75.82 0.0 0.03
02 14:35 N 17 G 26 16.09 Overcast SCT011 SCT034 OVC070 11.5 10 91% 75.84 0.0 0.03
02 13:55 N 15 G 35 8.05 Overcast BKN013 OVC020 11.4 9.9 29.6 -7 91% 75.92 0.0 0.08
02 13:35 N 19 G 33 16.09 Overcast OVC009 11.8 10.7 93% 75.95 0.0
02 13:15 N 11 G 26 16.09 Overcast OVC009 12.1 11.1 94% 75.9 0.0
02 12:55 N 15 G 30 16.09 Overcast OVC009 12.2 11.3 94% 75.84 0.0
02 12:35 N 19 G 30 11.27 Overcast BKN007 OVC021 12.3 11.7 96% 75.87 0.0
02 12:15 N 13 8.05 Overcast BKN007 BKN019 OVC065 12.2 11.6 96% 75.92 0.0
02 11:55 N 13 G 26 6.44 Overcast BKN007 BKN026 OVC065 12.5 11.5 94% 75.95 0.0 0.03
02 11:35 N 11 11.27 Overcast SCT011 SCT026 OVC060 12.5 11.3 92% 75.95 0.0
02 11:15 N 9 11.27 Overcast SCT009 OVC060 12.6 11.5 93% 75.92 0.0
02 10:55 N 13 16.09 Overcast BKN060 OVC070 12.6 11.6 94% 75.92 0.0 0.05
02 10:35 NE 11 16.09 Overcast OVC070 12.8 11.8 94% 75.87 0.0
02 10:15 NE 15 G 26 16.09 Overcast OVC070 13 12 94% 75.87 0.0
02 09:55 NE 11 16.09 Overcast OVC070 12.8 12 95% 75.87 0.0 0.03
02 09:35 N 17 16.09 Overcast OVC070 12.8 12.2 96% 75.84 0.0 0.03
02 09:15 N 11 16.09 Overcast SCT009 OVC070 13 12.5 97% 75.87 0.0
02 08:55 Calm 11.27 Overcast SCT007 BKN055 OVC070 13.2 12.9 98% 75.87 0.0 0.03
02 08:35 N 7 11.27 Overcast SCT037 SCT046 OVC055 13.1 12.8 98% 75.9 0.0 0.03
02 08:15 N 9 11.27 Overcast SCT039 BKN046 OVC070 13 12.7 98% 75.9 0.0
02 07:55 N 7 8.05 Overcast SCT004 BKN048 OVC070 12.8 12.6 29.6 -7 99% 75.87 0.0 0.25 1.37
02 07:35 N 9 6.44 Overcast SCT004 BKN014 OVC055 12.6 12.5 99% 75.87 0.0 0.23
02 07:15 N 9 4.02 Overcast BKN007 BKN016 OVC023 12.6 12.5 99% 75.87 0.0 0.15
02 06:55 N 7 4.02 Overcast SCT009 BKN023 OVC065 12.7 12.5 99% 75.87 0.0 0.43
02 06:35 N 7 6.44 Overcast SCT004 BKN050 OVC065 13 12.9 99% 75.87 0.0 0.28
02 06:15 N 6 6.44 Overcast BKN004 BKN022 OVC065 13.3 13.2 99% 75.84 0.0 0.13
02 05:55 NW 7 6.44 Overcast SCT010 BKN060 OVC070 13.2 13.1 99% 75.84 0.0 0.66
02 05:35 Calm 4.83 Overcast SCT033 SCT040 OVC060 13.1 12.8 98% 75.82 0.0 0.51
02 05:15 N 7 4.83 Overcast SCT010 BKN035 OVC044 13 12.5 97% 75.79 0.0 0.15
02 04:55 N 7 16.09 Overcast SCT010 BKN036 OVC090 13.4 12.8 96% 75.82 0.0 0.03
02 04:35 NW 9 16.09 Overcast BKN034 OVC120 13.5 12.8 96% 75.79 0.0
02 04:15 N 6 16.09 Partly Cloudy SCT120 13.4 12.6 95% 75.79 0.0
02 03:55 Calm 11.27 Fair CLR 13.2 12.6 96% 75.79 0.0
02 03:35 Calm 16.09 Partly Cloudy SCT021 SCT036 13.1 12.6 97% 75.79 0.0
02 03:15 Calm 16.09 Partly Cloudy SCT021 SCT036 13.1 12.3 95% 75.82 0.0
02 02:55 Calm 16.09 Fair CLR 12.8 12 95% 75.82 0.0 0.03
02 02:35 E 6 16.09 Partly Cloudy SCT025 12.5 11.6 94% 75.84 0.0
02 02:15 E 6 16.09 Partly Cloudy SCT025 12.5 11.4 93% 75.87 0.0
02 01:55 E 6 16.09 Partly Cloudy SCT025 12.6 11.4 29.6 -7 92% 75.9 0.0 0.3
02 01:35 E 6 16.09 Mostly Cloudy SCT027 SCT036 BKN046 12.4 11.1 92% 75.92 0.0
02 01:15 E 7 16.09 Partly Cloudy SCT024 SCT044 12.6 11.2 91% 75.92 0.0
02 00:55 E 6 16.09 Mostly Cloudy SCT024 BKN035 BKN044 12.8 11.3 91% 75.95 0.0
02 00:35 Calm 16.09 Overcast SCT023 OVC035 11.9 10.9 94% 75.95 0.0
02 00:15 Calm 11.27 Overcast BKN025 OVC035 11.1 10.3 95% 75.97 0.0
01 23:55 NE 7 8.05 Overcast OVC027 11.2 10.3 94% 75.97 0.0 0.25
Date Time (edt) Wind (kph) Vis. (km) Weather Sky Cond. Air Dwpt Max. Min. Relative Humidity Wind Chill (°C) Heat Index (°C) altimeter (cm) sea level (mb) 1 hr 3 hr 6 hr
6 hour
Temperature (ºC) Pressure Precipitation (cm)